Time;durP1;ratioP1;P1;durP2;ratioP2;P2;SDS_P1;SDS_P2;PMS_P1;PMS_P2;Temp;Humidity;BMP_temperature;BMP_pressure;BME280_temperature;BME280_humidity;BME280_pressure;Samples;Min_cycle;Max_cycle;Signal;HPM_P1;HPM_P2
2021/12/13 00:01:34;;;;;;;76.57;32.33;;;;;;;9.01;100.00;102200.34;4957786;28;20036;-78
2021/12/13 00:04:06;;;;;;;75.82;33.50;;;;;;;8.98;100.00;102209.56;4957621;28;20059;-78
2021/12/13 00:06:43;;;;;;;74.57;33.33;;;;;;;8.97;100.00;102196.00;4961823;28;20438;-78
2021/12/13 00:09:16;;;;;;;69.22;31.85;;;;;;;8.94;100.00;102193.44;4956917;28;20093;-78
2021/12/13 00:11:45;;;;;;;74.80;31.92;;;;;;;8.93;100.00;102206.19;4956295;28;20042;-78
2021/12/13 00:14:24;;;;;;;73.28;29.92;;;;;;;8.92;100.00;102198.97;4957986;28;20390;-78
2021/12/13 00:17:05;;;;;;;69.03;31.02;;;;;;;8.93;100.00;102203.44;4970285;28;20506;-78
2021/12/13 00:19:39;;;;;;;74.03;31.80;;;;;;;8.92;100.00;102187.13;4952098;28;20499;-78
2021/12/13 00:22:12;;;;;;;58.13;26.52;;;;;;;8.91;100.00;102194.44;4973254;28;20043;-78
2021/12/13 00:24:39;;;;;;;66.07;28.33;;;;;;;8.89;100.00;102198.25;4951221;29;20043;-78
2021/12/13 00:27:10;;;;;;;63.47;29.70;;;;;;;8.90;100.00;102200.88;4956837;28;20035;-78
2021/12/13 00:29:51;;;;;;;70.68;30.30;;;;;;;8.87;100.00;102205.59;4957436;28;20027;-78
2021/12/13 00:32:26;;;;;;;61.80;28.52;;;;;;;8.86;100.00;102210.19;4956241;28;20566;-78
2021/12/13 00:34:54;;;;;;;64.40;28.27;;;;;;;8.87;100.00;102216.53;4957775;28;20035;-78
2021/12/13 00:37:32;;;;;;;62.28;27.73;;;;;;;8.85;100.00;102219.34;4957246;29;20440;-78
2021/12/13 00:40:37;;;;;;;68.63;28.70;;;;;;;8.83;100.00;102227.59;4957794;28;20039;-78
2021/12/13 00:43:08;;;;;;;70.40;30.02;;;;;;;8.86;100.00;102223.84;4959187;28;20031;-78
2021/12/13 00:45:37;;;;;;;64.72;27.67;;;;;;;8.79;100.00;102234.19;4976859;28;20142;-78
2021/12/13 00:48:06;;;;;;;65.07;27.65;;;;;;;8.82;100.00;102222.22;4957969;28;20519;-78
2021/12/13 00:50:41;;;;;;;57.67;27.17;;;;;;;8.78;100.00;102231.53;4973089;28;20056;-78
2021/12/13 00:53:07;;;;;;;55.67;27.42;;;;;;;8.80;100.00;102230.47;4957229;28;20090;-78
2021/12/13 00:55:35;;;;;;;59.05;27.75;;;;;;;8.77;100.00;102236.13;4960053;29;20059;-78
2021/12/13 00:58:12;;;;;;;59.60;27.63;;;;;;;8.74;100.00;102229.91;4961675;28;20059;-78
2021/12/13 01:00:47;;;;;;;64.70;27.73;;;;;;;8.69;100.00;102235.63;4953396;29;20168;-78
2021/12/13 01:03:18;;;;;;;69.80;28.25;;;;;;;8.72;100.00;102235.44;4958906;28;20066;-78
2021/12/13 01:06:25;;;;;;;60.00;27.40;;;;;;;8.67;100.00;102234.78;4957544;28;20086;-77
2021/12/13 01:08:51;;;;;;;61.67;26.77;;;;;;;8.66;100.00;102241.22;4967277;28;20110;-78
2021/12/13 01:11:32;;;;;;;62.95;27.25;;;;;;;8.70;100.00;102239.22;4958791;28;20082;-78
2021/12/13 01:14:38;;;;;;;61.47;28.17;;;;;;;8.65;100.00;102245.78;4952945;28;20037;-78
2021/12/13 01:17:20;;;;;;;62.25;27.52;;;;;;;8.65;100.00;102233.97;4973793;28;20039;-78
2021/12/13 01:20:05;;;;;;;53.88;26.23;;;;;;;8.65;100.00;102244.91;4955411;29;20046;-78
2021/12/13 01:22:51;;;;;;;56.00;25.95;;;;;;;8.62;100.00;102239.59;4959264;29;20036;-78
2021/12/13 01:25:24;;;;;;;58.58;26.63;;;;;;;8.65;100.00;102240.31;4954299;29;20110;-78
2021/12/13 01:27:58;;;;;;;65.70;27.67;;;;;;;8.64;100.00;102240.38;4957927;28;20035;-78
2021/12/13 01:30:34;;;;;;;61.63;27.15;;;;;;;8.61;100.00;102251.47;4955702;29;20027;-78
2021/12/13 01:33:04;;;;;;;64.72;27.35;;;;;;;8.62;100.00;102253.22;4958962;28;20076;-78
2021/12/13 01:35:32;;;;;;;63.35;27.17;;;;;;;8.63;100.00;102257.75;4959727;28;20102;-77
2021/12/13 01:38:05;;;;;;;62.78;26.52;;;;;;;8.66;100.00;102263.06;4972873;28;20118;-77
2021/12/13 01:40:33;;;;;;;62.67;26.67;;;;;;;8.61;100.00;102260.56;4959539;29;20043;-78
2021/12/13 01:43:13;;;;;;;57.17;26.33;;;;;;;8.62;100.00;102269.63;4959096;28;20302;-78
2021/12/13 01:45:43;;;;;;;69.07;27.55;;;;;;;8.62;100.00;102270.53;4969200;28;20031;-78
2021/12/13 01:48:35;;;;;;;57.22;25.80;;;;;;;8.61;100.00;102268.75;4973878;28;20031;-78
2021/12/13 01:51:05;;;;;;;61.63;27.15;;;;;;;8.56;100.00;102268.09;4955300;29;20090;-78
2021/12/13 01:53:51;;;;;;;58.35;27.27;;;;;;;8.58;100.00;102268.88;4957639;28;20038;-78
2021/12/13 01:56:43;;;;;;;62.58;26.60;;;;;;;8.54;100.00;102261.78;4968362;28;20035;-78
2021/12/13 02:01:59;;;;;;;60.15;24.77;;;;;;;8.48;100.00;102253.91;4957099;28;20135;-77
2021/12/13 02:04:25;;;;;;;66.30;27.05;;;;;;;8.53;100.00;102260.03;4956639;28;20059;-78
2021/12/13 02:06:58;;;;;;;60.08;25.90;;;;;;;8.52;100.00;102258.25;4958496;28;20103;-77
2021/12/13 02:09:28;;;;;;;62.40;27.00;;;;;;;8.53;100.00;102262.75;4958422;28;20046;-77
2021/12/13 02:11:57;;;;;;;79.45;27.63;;;;;;;8.54;100.00;102263.63;4958418;28;20019;-78
2021/12/13 02:14:28;;;;;;;61.28;25.90;;;;;;;8.54;100.00;102269.09;4957348;28;20151;-77
2021/12/13 02:17:10;;;;;;;63.78;25.17;;;;;;;8.51;100.00;102270.16;4950044;28;20031;-78
2021/12/13 02:20:00;;;;;;;62.17;25.33;;;;;;;8.46;100.00;102264.91;4973458;28;20117;-78
2021/12/13 02:22:45;;;;;;;64.72;25.70;;;;;;;8.50;100.00;102262.03;4971593;28;20040;-78
2021/12/13 02:25:17;;;;;;;63.13;26.10;;;;;;;8.49;100.00;102261.13;4960407;28;20031;-78
2021/12/13 02:27:58;;;;;;;65.47;25.55;;;;;;;8.51;100.00;102252.88;4959227;28;20551;-78
2021/12/13 02:30:23;;;;;;;69.32;25.70;;;;;;;8.51;100.00;102264.69;4975849;28;20066;-78
2021/12/13 02:32:49;;;;;;;60.92;24.85;;;;;;;8.45;100.00;102251.31;4974850;28;20043;-78
2021/12/13 02:35:17;;;;;;;58.65;26.20;;;;;;;8.49;100.00;102273.91;4963228;28;20070;-78
2021/12/13 02:37:43;;;;;;;61.75;25.23;;;;;;;8.47;100.00;102265.78;4962543;28;20031;-78
2021/12/13 02:40:11;;;;;;;69.88;25.48;;;;;;;8.45;100.00;102268.56;4975180;28;20043;-79
2021/12/13 02:42:36;;;;;;;61.28;24.33;;;;;;;8.44;100.00;102255.91;4974742;28;20038;-78
2021/12/13 02:45:26;;;;;;;60.88;24.65;;;;;;;8.45;100.00;102268.56;4960733;28;20035;-78
2021/12/13 02:48:07;;;;;;;58.60;23.60;;;;;;;8.48;100.00;102264.84;4959915;28;20451;-78
2021/12/13 02:50:46;;;;;;;58.30;25.70;;;;;;;8.42;100.00;102270.53;4951923;29;20035;-78
2021/12/13 02:53:14;;;;;;;62.47;25.63;;;;;;;8.46;100.00;102270.38;4960121;28;20712;-78
2021/12/13 02:55:40;;;;;;;62.00;24.95;;;;;;;8.46;100.00;102272.19;4958281;29;20043;-78
2021/12/13 02:58:11;;;;;;;62.08;27.00;;;;;;;8.46;100.00;102280.38;4959797;28;20483;-78
2021/12/13 03:01:06;;;;;;;62.55;25.00;;;;;;;8.45;100.00;102260.38;4955547;28;20055;-78
2021/12/13 03:03:36;;;;;;;64.00;25.52;;;;;;;8.45;100.00;102259.50;4958731;28;20059;-78
2021/12/13 03:06:06;;;;;;;60.22;25.45;;;;;;;8.42;100.00;102256.91;4958548;28;20121;-78
2021/12/13 03:08:42;;;;;;;61.40;24.55;;;;;;;8.41;100.00;102252.38;4973586;28;20039;-78
2021/12/13 03:11:22;;;;;;;65.60;24.90;;;;;;;8.42;100.00;102252.31;4957388;28;20081;-78
2021/12/13 03:13:53;;;;;;;58.22;25.17;;;;;;;8.31;100.00;102238.28;4974509;28;20035;-78
2021/12/13 03:16:22;;;;;;;57.72;24.60;;;;;;;8.43;100.00;102266.91;4961889;28;20502;-78
2021/12/13 03:18:59;;;;;;;62.75;26.08;;;;;;;8.41;100.00;102264.22;4974286;28;20043;-78
2021/12/13 03:21:58;;;;;;;61.40;23.98;;;;;;;8.43;100.00;102267.78;4958930;28;20122;-78
2021/12/13 03:24:36;;;;;;;49.90;23.05;;;;;;;8.40;100.00;102265.16;4941406;29;20027;-78
2021/12/13 03:27:04;;;;;;;60.00;24.67;;;;;;;8.40;100.00;102264.28;4959101;28;20035;-78
2021/12/13 03:29:58;;;;;;;52.22;22.23;;;;;;;8.40;100.00;102267.00;4958386;28;20046;-78
2021/12/13 03:32:30;;;;;;;55.83;24.40;;;;;;;8.39;100.00;102271.56;4968169;28;20035;-78
2021/12/13 03:35:06;;;;;;;59.60;23.75;;;;;;;8.38;100.00;102258.88;4973575;28;20672;-78
2021/12/13 03:37:32;;;;;;;56.85;23.05;;;;;;;8.42;100.00;102270.53;4973791;28;20086;-78
2021/12/13 03:40:06;;;;;;;62.15;23.42;;;;;;;8.38;100.00;102267.06;4959041;28;20035;-79
2021/12/13 03:42:42;;;;;;;60.35;23.98;;;;;;;8.34;100.00;102284.53;4972939;28;20047;-79
2021/12/13 03:45:16;;;;;;;51.88;23.50;;;;;;;8.38;100.00;102279.81;4965839;28;20035;-78
2021/12/13 03:47:50;;;;;;;52.17;23.73;;;;;;;8.39;100.00;102277.00;4968608;28;20038;-78
2021/12/13 03:50:20;;;;;;;58.33;23.98;;;;;;;8.38;100.00;102280.72;4956966;29;20067;-78
2021/12/13 03:52:49;;;;;;;57.35;22.95;;;;;;;8.38;100.00;102288.00;4952653;28;20098;-78
2021/12/13 03:55:19;;;;;;;53.80;23.10;;;;;;;8.38;100.00;102280.72;4957136;28;20039;-78
2021/12/13 03:57:50;;;;;;;53.30;23.45;;;;;;;8.34;100.00;102283.66;4973400;28;20102;-78
2021/12/13 04:00:20;;;;;;;56.88;21.30;;;;;;;8.33;100.00;102279.16;4956030;28;20114;-78
2021/12/13 04:02:46;;;;;;;47.28;21.55;;;;;;;8.39;100.00;102281.59;4973433;28;21660;-78
2021/12/13 04:05:18;;;;;;;47.38;20.98;;;;;;;8.40;100.00;102283.38;4958504;28;20467;-78
2021/12/13 04:07:48;;;;;;;50.13;22.48;;;;;;;8.38;100.00;102279.81;4958284;28;20110;-78
2021/12/13 04:10:18;;;;;;;50.63;21.30;;;;;;;8.36;100.00;102270.81;4966607;28;20030;-78
2021/12/13 04:12:48;;;;;;;50.65;21.27;;;;;;;8.36;100.00;102276.28;4958546;28;20046;-78
2021/12/13 04:15:30;;;;;;;50.92;22.75;;;;;;;8.33;100.00;102280.06;4969188;28;20054;-78
2021/12/13 04:18:01;;;;;;;47.78;19.92;;;;;;;8.36;100.00;102287.19;4954715;28;20055;-78
2021/12/13 04:20:36;;;;;;;48.58;21.20;;;;;;;8.36;100.00;102285.38;4962644;28;20042;-78
2021/12/13 04:23:14;;;;;;;52.45;20.38;;;;;;;8.33;100.00;102284.59;4951895;28;20039;-79
2021/12/13 04:25:43;;;;;;;42.58;20.35;;;;;;;8.33;100.00;102276.41;4962528;28;20379;-78
2021/12/13 04:28:17;;;;;;;47.55;20.13;;;;;;;8.36;100.00;102289.94;4962776;28;20046;-78
2021/12/13 04:30:46;;;;;;;46.08;19.70;;;;;;;8.36;100.00;102288.09;4962390;28;20049;-78
2021/12/13 04:33:26;;;;;;;43.30;19.98;;;;;;;8.39;100.00;102289.78;4945452;29;20039;-78
2021/12/13 04:36:04;;;;;;;48.75;19.05;;;;;;;8.35;100.00;102286.31;4944729;29;20039;-78
2021/12/13 04:38:50;;;;;;;47.28;19.45;;;;;;;8.34;100.00;102278.22;4976532;28;20031;-79
2021/12/13 04:41:44;;;;;;;43.13;19.55;;;;;;;8.34;100.00;102290.00;4962448;28;20050;-79
2021/12/13 04:44:19;;;;;;;44.80;19.23;;;;;;;8.31;100.00;102287.41;4977787;28;20050;-79
2021/12/13 04:46:49;;;;;;;39.13;19.30;;;;;;;8.29;100.00;102287.47;4963058;28;20035;-79
2021/12/13 04:49:18;;;;;;;44.42;19.08;;;;;;;8.27;100.00;102283.94;4969563;28;20501;-79
2021/12/13 04:51:52;;;;;;;37.30;18.38;;;;;;;8.33;100.00;102282.78;4976349;28;20032;-79
2021/12/13 04:54:18;;;;;;;40.03;18.17;;;;;;;8.33;100.00;102292.78;4962466;28;20045;-78
2021/12/13 04:56:47;;;;;;;42.03;19.08;;;;;;;8.34;100.00;102294.56;4957896;28;20062;-79
2021/12/13 04:59:13;;;;;;;41.38;18.73;;;;;;;8.36;100.00;102289.94;4974644;28;20120;-78
2021/12/13 05:01:42;;;;;;;44.97;19.23;;;;;;;8.29;100.00;102294.78;4963313;28;20522;-79
2021/12/13 05:04:08;;;;;;;38.60;18.13;;;;;;;8.28;100.00;102293.91;4961971;28;20059;-78
2021/12/13 05:06:38;;;;;;;33.17;16.63;;;;;;;8.28;100.00;102291.19;4962030;28;20039;-78
2021/12/13 05:09:07;;;;;;;40.13;17.58;;;;;;;8.29;100.00;102294.78;4977619;28;20495;-79
2021/12/13 05:11:41;;;;;;;39.15;17.92;;;;;;;8.29;100.00;102297.50;4963544;28;20114;-79
2021/12/13 05:14:08;;;;;;;35.22;18.13;;;;;;;8.28;100.00;102291.19;4963039;28;20114;-78
2021/12/13 05:16:48;;;;;;;37.40;18.10;;;;;;;8.31;100.00;102284.69;4962873;28;20081;-78
2021/12/13 05:19:24;;;;;;;39.95;19.00;;;;;;;8.29;100.00;102286.59;4963325;28;20066;-79
2021/12/13 05:21:51;;;;;;;33.83;17.35;;;;;;;8.33;100.00;102284.59;4963898;28;20528;-78
2021/12/13 05:24:22;;;;;;;40.03;17.23;;;;;;;8.27;100.00;102289.41;4962031;28;20044;-79
2021/12/13 05:26:50;;;;;;;34.17;16.92;;;;;;;8.29;100.00;102295.66;4961206;28;20484;-78
2021/12/13 05:29:32;;;;;;;34.83;17.45;;;;;;;8.31;100.00;102289.25;4962509;29;20529;-78
2021/12/13 05:32:12;;;;;;;37.83;18.52;;;;;;;8.29;100.00;102295.66;4957409;28;20035;-78
2021/12/13 05:34:43;;;;;;;36.92;17.73;;;;;;;8.27;100.00;102289.41;4961665;28;20043;-78
2021/12/13 05:37:09;;;;;;;36.33;17.38;;;;;;;8.26;100.00;102284.00;4974750;28;20027;-78
2021/12/13 05:39:37;;;;;;;32.22;15.13;;;;;;;8.27;100.00;102288.53;4962843;28;20039;-77
2021/12/13 05:42:11;;;;;;;34.90;16.92;;;;;;;8.27;100.00;102291.25;4949891;29;20118;-78
2021/12/13 05:44:42;;;;;;;37.33;15.82;;;;;;;8.30;100.00;102299.28;4960031;29;20114;-78
2021/12/13 05:47:26;;;;;;;34.65;16.73;;;;;;;8.27;100.00;102305.78;4959459;28;20067;-78
2021/12/13 05:49:53;;;;;;;34.60;16.02;;;;;;;8.26;100.00;102304.03;4959391;29;20042;-78
2021/12/13 05:52:29;;;;;;;33.83;16.58;;;;;;;8.31;100.00;102314.69;4958594;28;20059;-78
2021/12/13 05:54:58;;;;;;;35.58;15.82;;;;;;;8.25;100.00;102304.97;4959197;28;20046;-78
2021/12/13 05:57:30;;;;;;;32.42;15.80;;;;;;;8.31;100.00;102308.34;4974899;28;20047;-78
2021/12/13 06:00:32;;;;;;;30.63;13.80;;;;;;;8.25;100.00;102301.34;4960932;28;20070;-78
2021/12/13 06:03:02;;;;;;;29.58;15.90;;;;;;;8.28;100.00;102298.50;4940649;29;20106;-78
2021/12/13 06:05:34;;;;;;;27.40;14.88;;;;;;;8.25;100.00;102293.19;4944207;29;20043;-78
2021/12/13 06:08:05;;;;;;;30.27;14.48;;;;;;;8.26;100.00;102297.66;4960061;29;20122;-78
2021/12/13 06:10:46;;;;;;;30.33;14.98;;;;;;;8.24;100.00;102286.81;4960118;28;20031;-78
2021/12/13 06:13:23;;;;;;;27.67;15.77;;;;;;;8.23;100.00;102301.44;4945196;29;20110;-80
2021/12/13 06:15:50;;;;;;;30.58;15.18;;;;;;;8.27;100.00;102313.97;4957555;28;20487;-77
2021/12/13 06:18:20;;;;;;;27.30;14.63;;;;;;;8.26;100.00;102311.28;4974133;28;20098;-78
2021/12/13 06:21:05;;;;;;;31.38;14.65;;;;;;;8.27;100.00;102311.22;4974511;28;20027;-77
2021/12/13 06:23:34;;;;;;;37.35;14.55;;;;;;;8.23;100.00;102303.25;4972514;28;20468;-77
2021/12/13 06:26:06;;;;;;;30.33;14.93;;;;;;;8.25;100.00;102302.22;4972857;28;20478;-77
2021/12/13 06:28:35;;;;;;;27.38;14.63;;;;;;;8.25;100.00;102302.22;4953902;28;20035;-77
2021/12/13 06:31:16;;;;;;;24.75;13.18;;;;;;;8.25;100.00;102309.53;4953227;29;20046;-78
2021/12/13 06:33:47;;;;;;;26.92;13.98;;;;;;;8.24;100.00;102314.09;4956660;28;20372;-77
2021/12/13 06:36:14;;;;;;;27.20;14.13;;;;;;;8.22;100.00;102315.13;4956637;29;20059;-77
2021/12/13 06:38:50;;;;;;;24.80;13.48;;;;;;;8.20;100.00;102315.22;4952670;28;20063;-77
2021/12/13 06:41:27;;;;;;;27.60;14.90;;;;;;;8.22;100.00;102320.59;4955137;28;20038;-77
2021/12/13 06:43:58;;;;;;;27.17;13.85;;;;;;;8.24;100.00;102310.50;4958030;28;20051;-77
2021/12/13 06:46:24;;;;;;;28.02;13.55;;;;;;;8.21;100.00;102314.22;4952751;28;20035;-77
2021/12/13 06:49:00;;;;;;;29.67;13.52;;;;;;;8.18;100.00;102313.50;4968938;28;20071;-77
2021/12/13 06:51:45;;;;;;;26.77;14.07;;;;;;;8.21;100.00;102324.25;4950807;28;20138;-77
2021/12/13 06:54:20;;;;;;;25.23;13.32;;;;;;;8.22;100.00;102336.97;4953887;28;20035;-77
2021/12/13 06:56:53;;;;;;;24.98;14.35;;;;;;;8.21;100.00;102321.53;4968807;28;20483;-77
2021/12/13 06:59:19;;;;;;;30.08;13.75;;;;;;;8.18;100.00;102319.84;4953550;28;20063;-77
2021/12/13 07:02:03;;;;;;;27.92;13.85;;;;;;;8.17;100.00;102317.19;4965352;28;20066;-77
2021/12/13 07:04:57;;;;;;;22.65;12.23;;;;;;;8.22;100.00;102329.66;4937641;29;20047;-77
2021/12/13 07:07:30;;;;;;;22.83;12.25;;;;;;;8.34;100.00;102324.59;4951506;28;20407;-77
2021/12/13 07:10:03;;;;;;;22.70;12.20;;;;;;;8.27;100.00;102318.53;4954050;28;20039;-77
2021/12/13 07:12:31;;;;;;;;;;;;;;;8.24;100.00;102327.72;4955384;29;20039;-78
2021/12/13 07:14:58;;;;;;;24.63;12.07;;;;;;;8.19;100.00;102328.91;4955525;29;19957;-78
2021/12/13 07:17:34;;;;;;;21.83;11.85;;;;;;;8.20;100.00;102331.56;4951108;28;20482;-78
2021/12/13 07:20:12;;;;;;;21.45;11.60;;;;;;;8.21;100.00;102341.50;4965869;28;20039;-78
2021/12/13 07:22:37;;;;;;;24.25;12.65;;;;;;;8.20;100.00;102345.22;4959469;28;20082;-78
2021/12/13 07:25:13;;;;;;;23.42;11.50;;;;;;;8.24;100.00;102344.09;4954989;28;20031;-78
2021/12/13 07:27:44;;;;;;;22.02;12.35;;;;;;;8.26;100.00;102346.78;4956784;29;20506;-77
2021/12/13 07:30:23;;;;;;;25.35;11.95;;;;;;;8.20;100.00;102347.94;4956975;29;20031;-77
2021/12/13 07:32:57;;;;;;;21.05;11.05;;;;;;;8.22;100.00;102340.56;4950237;28;20115;-78
2021/12/13 07:35:28;;;;;;;23.50;12.05;;;;;;;8.27;100.00;102352.16;4952025;28;20067;-78
2021/12/13 07:38:00;;;;;;;18.83;11.35;;;;;;;8.27;100.00;102356.75;4955761;29;20446;-78
2021/12/13 07:40:43;;;;;;;21.00;11.23;;;;;;;8.25;100.00;102365.00;4939855;29;20117;-78
2021/12/13 07:43:28;;;;;;;27.58;11.88;;;;;;;8.27;100.00;102367.66;4966878;28;20030;-78
2021/12/13 07:46:18;;;;;;;22.88;12.23;;;;;;;8.29;100.00;102365.72;4956168;28;20054;-78
2021/12/13 07:48:43;;;;;;;18.27;10.80;;;;;;;8.31;100.00;102365.66;4972086;28;20129;-78
2021/12/13 07:51:11;;;;;;;23.17;12.02;;;;;;;8.30;100.00;102367.53;4956391;28;20061;-78
2021/12/13 07:53:48;;;;;;;21.20;11.18;;;;;;;8.31;100.00;102372.00;4953419;29;20379;-78
2021/12/13 07:56:33;;;;;;;20.88;11.27;;;;;;;8.28;100.00;102370.31;4956344;28;20039;-78
2021/12/13 07:59:06;;;;;;;19.92;11.77;;;;;;;8.27;100.00;102365.81;4955318;28;20062;-78
2021/12/13 08:01:49;;;;;;;24.63;11.85;;;;;;;8.29;100.00;102369.34;4935798;29;20049;-78
2021/12/13 08:04:26;;;;;;;21.67;11.20;;;;;;;8.52;100.00;102386.56;4970488;28;20075;-80
2021/12/13 08:07:06;;;;;;;17.55;10.10;;;;;;;8.39;100.00;102383.47;4955113;28;20042;-77
2021/12/13 08:09:33;;;;;;;19.77;11.00;;;;;;;8.35;100.00;102390.03;4953605;28;20031;-78
2021/12/13 08:12:40;;;;;;;22.25;11.55;;;;;;;8.33;100.00;102391.03;4951418;28;20042;-77
2021/12/13 08:15:14;;;;;;;19.27;10.90;;;;;;;8.35;100.00;102394.59;4953507;28;20466;-77
2021/12/13 08:17:51;;;;;;;20.85;11.43;;;;;;;8.36;100.00;102388.16;4954826;29;20087;-77
2021/12/13 08:20:36;;;;;;;18.98;10.55;;;;;;;8.34;100.00;102381.91;4948459;29;20521;-77
2021/12/13 08:23:04;;;;;;;21.13;10.82;;;;;;;8.41;100.00;102394.31;4934998;29;20035;-77
2021/12/13 08:25:37;;;;;;;20.08;11.25;;;;;;;8.38;100.00;102389.88;4953400;28;20039;-77
2021/12/13 08:28:08;;;;;;;21.42;11.57;;;;;;;8.37;100.00;102399.03;4952470;28;20028;-78
2021/12/13 08:30:43;;;;;;;15.30;9.00;;;;;;;8.37;100.00;102399.03;4946359;28;20091;-78
2021/12/13 08:33:22;;;;;;;22.38;10.75;;;;;;;8.39;100.00;102388.91;4951303;28;20031;-77
2021/12/13 08:35:58;;;;;;;18.85;10.18;;;;;;;8.36;100.00;102374.53;4954237;29;20035;-78
2021/12/13 08:38:36;;;;;;;18.50;10.48;;;;;;;8.36;100.00;102391.81;4952871;28;20055;-77
2021/12/13 08:41:38;;;;;;;19.50;10.57;;;;;;;8.38;100.00;102383.53;4936683;29;20036;-78
2021/12/13 08:44:14;;;;;;;19.02;9.95;;;;;;;8.40;100.00;102385.25;4961732;28;20521;-77
2021/12/13 08:46:55;;;;;;;19.02;10.43;;;;;;;8.42;100.00;102390.63;4955297;28;20046;-78
2021/12/13 08:49:34;;;;;;;22.38;10.38;;;;;;;8.43;100.00;102387.88;4952939;29;20071;-78
2021/12/13 08:52:25;;;;;;;19.80;10.98;;;;;;;8.40;100.00;102393.44;4956491;29;20039;-77
2021/12/13 08:55:15;;;;;;;18.92;9.80;;;;;;;8.43;100.00;102397.91;4955699;28;20039;-77
2021/12/13 08:58:19;;;;;;;21.67;10.63;;;;;;;8.43;100.00;102393.31;4964068;28;20035;-76
2021/12/13 09:00:51;;;;;;;23.40;10.88;;;;;;;8.42;100.00;102402.44;4947792;28;20051;-78
2021/12/13 09:03:31;;;;;;;21.83;10.25;;;;;;;8.43;100.00;102401.50;4957943;28;20051;-77
2021/12/13 09:06:18;;;;;;;24.92;10.07;;;;;;;8.48;100.00;102405.88;4951730;29;20384;-77
2021/12/13 09:08:50;;;;;;;18.77;8.27;;;;;;;8.54;100.00;102403.75;4974202;28;20676;-81
2021/12/13 09:11:51;;;;;;;17.38;9.10;;;;;;;8.70;100.00;102401.19;4959076;28;20561;-81
2021/12/13 09:14:22;;;;;;;19.55;9.70;;;;;;;8.54;100.00;102401.00;4966074;28;20034;-79
2021/12/13 09:16:54;;;;;;;17.90;9.68;;;;;;;8.49;100.00;102410.38;4960405;29;20043;-79
2021/12/13 09:19:30;;;;;;;21.70;9.80;;;;;;;8.44;100.00;102414.22;4960719;29;20495;-79
2021/12/13 09:22:03;;;;;;;19.00;9.77;;;;;;;8.40;100.00;102404.34;4966197;28;20035;-80
2021/12/13 09:24:40;;;;;;;17.52;9.57;;;;;;;8.41;100.00;102397.03;4975566;28;20027;-80
2021/12/13 09:27:27;;;;;;;16.42;9.48;;;;;;;8.46;100.00;102411.38;4960390;28;20090;-79
2021/12/13 09:29:57;;;;;;;17.55;10.35;;;;;;;8.51;100.00;102411.19;4962241;28;20031;-81
2021/12/13 09:32:29;;;;;;;17.52;9.30;;;;;;;8.44;100.00;102408.75;4943833;29;20031;-80
2021/12/13 09:35:20;;;;;;;16.33;9.25;;;;;;;8.41;100.00;102407.94;4963433;29;20032;-80
2021/12/13 09:37:46;;;;;;;17.95;9.85;;;;;;;8.43;100.00;102420.63;4964310;28;20070;-80
2021/12/13 09:40:13;;;;;;;13.18;8.38;;;;;;;8.49;100.00;102422.16;4963344;29;20035;-80
2021/12/13 09:42:52;;;;;;;15.27;8.55;;;;;;;8.48;100.00;102433.16;4963225;29;20070;-80
2021/12/13 09:45:28;;;;;;;14.25;8.57;;;;;;;8.45;100.00;102432.34;4963423;28;20037;-80
2021/12/13 09:47:55;;;;;;;11.90;8.20;;;;;;;8.46;100.00;102441.41;4962954;28;20038;-80
2021/12/13 09:50:25;;;;;;;13.07;8.20;;;;;;;8.46;100.00;102435.97;4976300;28;20071;-80
2021/12/13 09:53:02;;;;;;;15.23;7.70;;;;;;;8.50;100.00;102440.34;4963532;29;20035;-80
2021/12/13 09:55:32;;;;;;;14.73;9.20;;;;;;;8.44;100.00;102443.34;4961943;29;20043;-82
2021/12/13 09:58:10;;;;;;;15.73;8.48;;;;;;;8.52;100.00;102443.00;4978974;28;20075;-81
2021/12/13 10:01:03;;;;;;;16.05;9.02;;;;;;;8.48;100.00;102452.28;4961469;29;20062;-80
2021/12/13 10:03:33;;;;;;;13.65;8.38;;;;;;;8.44;100.00;102443.34;4961499;28;20039;-80
2021/12/13 10:06:03;;;;;;;15.52;8.90;;;;;;;8.44;100.00;102451.53;4977445;28;20036;-80
2021/12/13 10:08:45;;;;;;;15.13;9.38;;;;;;;8.40;100.00;102453.47;4945003;29;20054;-81
2021/12/13 10:11:16;;;;;;;13.60;8.57;;;;;;;8.42;100.00;102458.88;4960677;28;20024;-82
2021/12/13 10:13:42;;;;;;;14.45;8.90;;;;;;;8.42;100.00;102461.59;4960658;28;20028;-80
2021/12/13 10:16:18;;;;;;;14.55;9.20;;;;;;;8.43;100.00;102453.38;4982237;28;20138;-81
2021/12/13 10:18:46;;;;;;;13.43;8.50;;;;;;;8.44;100.00;102441.50;4982099;28;20042;-81
2021/12/13 10:21:20;;;;;;;15.32;9.02;;;;;;;8.50;100.00;102447.66;4980809;28;20046;-81
2021/12/13 10:23:53;;;;;;;14.00;8.55;;;;;;;8.50;100.00;102443.06;4981150;28;20039;-81
2021/12/13 10:26:20;;;;;;;14.60;8.48;;;;;;;8.50;100.00;102443.06;4967832;28;20035;-81
2021/12/13 10:28:55;;;;;;;13.93;7.95;;;;;;;8.46;100.00;102436.88;4965360;28;20422;-81
2021/12/13 10:31:36;;;;;;;11.75;8.30;;;;;;;8.52;100.00;102441.16;4964000;29;20031;-82
2021/12/13 10:34:06;;;;;;;11.88;7.95;;;;;;;8.49;100.00;102429.50;4978496;28;20074;-82
2021/12/13 10:36:34;;;;;;;17.60;8.48;;;;;;;8.59;100.00;102436.28;4960694;28;20510;-81
2021/12/13 10:39:08;;;;;;;14.63;8.48;;;;;;;8.48;100.00;102428.63;4974916;28;20086;-82
2021/12/13 10:41:42;;;;;;;11.65;8.35;;;;;;;8.51;100.00;102419.38;4961948;28;20087;-80
2021/12/13 10:44:13;;;;;;;15.07;8.80;;;;;;;8.57;100.00;102427.28;4943358;29;20035;-82
2021/12/13 10:46:44;;;;;;;13.85;9.05;;;;;;;8.56;100.00;102429.16;4963514;29;20051;-81
2021/12/13 10:49:20;;;;;;;13.52;8.57;;;;;;;8.59;100.00;102433.56;4971828;28;20472;-82
2021/12/13 10:51:54;;;;;;;12.35;7.75;;;;;;;8.61;100.00;102428.94;4949529;29;20051;-80
2021/12/13 10:54:24;;;;;;;17.15;7.82;;;;;;;8.57;100.00;102428.16;4977768;28;20023;-80
2021/12/13 10:57:01;;;;;;;14.90;7.63;;;;;;;8.59;100.00;102428.09;4957492;28;20042;-79
2021/12/13 10:59:31;;;;;;;15.93;7.78;;;;;;;8.54;100.00;102420.13;4962284;28;20043;-80
2021/12/13 11:02:03;;;;;;;15.35;8.13;;;;;;;8.55;100.00;102434.69;4973772;28;20139;-78
2021/12/13 11:05:05;;;;;;;15.05;7.20;;;;;;;8.60;100.00;102438.97;4945887;29;20061;-80
2021/12/13 11:07:31;;;;;;;12.70;7.05;;;;;;;8.55;100.00;102430.09;4961603;29;20110;-80
2021/12/13 11:09:58;;;;;;;14.00;6.80;;;;;;;8.61;100.00;102424.38;4960585;28;20067;-80
2021/12/13 11:12:32;;;;;;;14.30;7.35;;;;;;;8.62;100.00;102427.97;4961414;28;20517;-80
2021/12/13 11:15:00;;;;;;;13.55;7.10;;;;;;;8.60;100.00;102418.97;4961685;29;20031;-80
2021/12/13 11:17:29;;;;;;;11.82;7.03;;;;;;;8.63;100.00;102414.25;4954284;28;20067;-80
2021/12/13 11:20:06;;;;;;;9.23;5.90;;;;;;;8.65;100.00;102423.25;4961108;29;20031;-80
2021/12/13 11:22:36;;;;;;;9.57;6.05;;;;;;;8.62;100.00;102414.31;4978100;28;20054;-79
2021/12/13 11:25:10;;;;;;;10.65;5.78;;;;;;;8.66;100.00;102421.44;4947006;29;20030;-82
2021/12/13 11:27:37;;;;;;;10.45;5.65;;;;;;;8.61;100.00;102407.97;4962894;29;20039;-84
2021/12/13 11:30:10;;;;;;;8.88;5.18;;;;;;;8.65;100.00;102411.44;4962822;28;20154;-82
2021/12/13 11:32:38;;;;;;;14.13;5.50;;;;;;;8.72;100.00;102420.25;4944456;29;20055;-79
2021/12/13 11:35:06;;;;;;;11.48;5.35;;;;;;;8.76;100.00;102421.91;4946037;29;20035;-80
2021/12/13 11:37:51;;;;;;;10.98;5.60;;;;;;;8.81;100.00;102420.72;4960420;29;20050;-80
2021/12/13 11:40:22;;;;;;;8.93;4.93;;;;;;;8.75;100.00;102417.38;4943222;28;20053;-80
2021/12/13 11:43:25;;;;;;;13.98;5.25;;;;;;;8.77;100.00;102427.28;4957096;28;20055;-79
2021/12/13 11:46:05;;;;;;;8.35;4.43;;;;;;;8.85;100.00;102415.09;4953197;29;20034;-81
2021/12/13 11:49:00;;;;;;;7.47;3.95;;;;;;;8.74;100.00;102421.97;4956455;28;20510;-81
2021/12/13 11:51:42;;;;;;;9.07;4.10;;;;;;;8.74;100.00;102413.78;4954737;28;20190;-83